createdAt,value
2022-08-08T00:49:01.920Z,91.00
2022-08-08T00:51:59.842Z,91.40
2022-08-08T00:54:51.718Z,91.60
2022-08-08T00:57:58.027Z,91.70
2022-08-08T01:00:28.557Z,91.90
2022-08-08T01:04:01.010Z,92.00
2022-08-08T01:06:27.234Z,92.10
2022-08-08T01:09:35.669Z,92.20
2022-08-08T01:12:33.918Z,92.30
2022-08-08T01:15:37.335Z,92.50
2022-08-08T01:18:52.674Z,92.60
2022-08-08T01:21:26.326Z,92.60
2022-08-08T01:24:20.140Z,92.80
2022-08-08T01:27:16.158Z,92.90
2022-08-08T01:29:58.722Z,93.00
2022-08-08T01:32:58.315Z,93.10
2022-08-08T01:35:47.264Z,93.20
2022-08-08T01:38:50.332Z,93.30
2022-08-08T01:41:50.528Z,93.40
2022-08-08T01:44:53.519Z,93.50
2022-08-08T01:48:15.003Z,93.60
2022-08-08T01:50:50.761Z,93.70
2022-08-08T01:55:17.892Z,93.90
2022-08-08T01:57:17.336Z,94.00
2022-08-08T02:00:16.834Z,94.20
2022-08-08T02:02:58.765Z,94.40
2022-08-08T02:06:06.469Z,94.40
2022-08-08T02:08:47.829Z,94.50
2022-08-08T02:11:23.475Z,94.60
2022-08-08T02:14:05.565Z,94.70
2022-08-08T02:16:54.245Z,94.80
2022-08-08T02:20:07.880Z,94.90
2022-08-08T02:25:47.223Z,94.80
2022-08-08T02:31:43.625Z,95.00
2022-08-08T02:34:27.598Z,95.40
2022-08-08T02:37:52.486Z,95.60
2022-08-08T02:40:39.026Z,95.60
2022-08-08T02:54:31.105Z,95.80
2022-08-08T02:57:01.684Z,96.30
2022-08-08T03:00:26.832Z,96.50
2022-08-08T03:03:08.135Z,96.60
2022-08-08T03:05:53.511Z,96.60
2022-08-08T03:09:09.971Z,96.90
2022-08-08T04:40:54.163Z,99.00
2022-08-08T04:43:32.013Z,99.30
2022-08-08T04:46:10.452Z,99.40
2022-08-08T04:48:37.690Z,99.40
2022-08-08T04:51:06.141Z,99.40
2022-08-08T04:54:37.084Z,99.40
2022-08-08T04:56:23.125Z,99.30
2022-08-08T04:58:50.780Z,99.00
2022-08-08T05:01:18.224Z,97.30
2022-08-08T05:04:10.363Z,94.90
2022-08-08T05:14:08.616Z,81.30
2022-08-08T05:16:52.890Z,80.40
2022-08-08T05:20:11.573Z,79.40
2022-08-08T06:56:16.598Z,83.30
2022-08-08T06:58:44.034Z,85.40
2022-08-08T07:02:16.601Z,86.50
2022-08-08T07:04:41.611Z,88.10
2022-08-08T07:07:00.996Z,89.00
2022-08-08T07:09:56.204Z,88.70
2022-08-08T07:12:47.386Z,88.70
2022-08-08T07:15:32.063Z,88.90
2022-08-08T07:18:37.113Z,88.70
2022-08-08T07:21:04.773Z,89.20
2022-08-08T07:24:01.387Z,89.60
2022-08-08T07:26:35.436Z,89.70
2022-08-08T07:29:05.930Z,88.60
2022-08-08T07:31:36.765Z,88.80
2022-08-08T07:34:09.090Z,88.50
2022-08-08T07:36:41.920Z,87.80
2022-08-08T07:39:28.944Z,87.30
2022-08-08T07:42:04.273Z,87.10
2022-08-08T07:44:33.652Z,85.70
2022-08-08T07:47:07.776Z,88.70
2022-08-08T07:49:36.096Z,87.80
2022-08-08T07:52:19.695Z,87.00
2022-08-08T07:55:23.280Z,86.60
2022-08-08T07:58:26.255Z,86.20
2022-08-08T08:01:03.456Z,85.90
2022-08-08T08:03:51.582Z,86.80
2022-08-08T08:06:21.775Z,85.90
2022-08-08T08:09:00.726Z,85.70
2022-08-08T08:11:33.673Z,85.10
2022-08-08T08:14:10.774Z,84.20
2022-08-08T08:16:41.346Z,85.10
2022-08-08T08:19:12.676Z,84.30
2022-08-08T08:21:57.525Z,84.20
2022-08-08T08:24:30.926Z,84.10
2022-08-08T08:27:03.685Z,85.50
2022-08-08T08:29:31.243Z,85.00
2022-08-08T08:31:59.292Z,84.80
2022-08-08T08:34:32.520Z,83.90
2022-08-08T08:37:03.261Z,83.70
2022-08-08T08:39:59.247Z,82.70
2022-08-08T08:42:31.676Z,81.30
2022-08-08T08:45:21.477Z,83.40
2022-08-08T08:47:53.212Z,82.60
2022-08-08T08:50:32.515Z,82.80
2022-08-08T08:53:27.548Z,82.30
2022-08-08T08:56:01.247Z,82.90
2022-08-08T08:58:41.528Z,82.80
2022-08-08T09:01:14.585Z,81.30
2022-08-08T09:03:50.987Z,81.00
2022-08-08T09:06:28.433Z,81.00
2022-08-08T09:09:25.824Z,80.20
2022-08-08T09:12:02.337Z,80.70
2022-08-08T09:14:34.183Z,79.60
2022-08-08T09:17:11.504Z,81.30
2022-08-08T09:22:02.280Z,79.80
2022-08-08T09:22:29.440Z,80.40
2022-08-08T09:24:56.927Z,80.40
2022-08-08T09:27:42.130Z,80.10
2022-08-08T09:30:17.926Z,78.90
2022-08-08T09:33:54.180Z,79.70
2022-08-08T09:35:50.273Z,78.80
2022-08-08T09:38:52.544Z,79.50
2022-08-08T09:41:55.073Z,79.60
2022-08-08T09:44:41.707Z,77.10
2022-08-08T09:47:27.052Z,78.40
2022-08-08T09:50:04.736Z,79.50
2022-08-08T09:52:58.402Z,76.70
2022-08-08T09:55:51.350Z,76.70
2022-08-08T09:58:25.974Z,77.70
2022-08-08T10:01:03.205Z,78.10
2022-08-08T10:03:56.059Z,76.60
2022-08-08T10:06:29.350Z,76.50
2022-08-08T10:09:00.278Z,77.00
2022-08-08T10:12:27.202Z,76.30
2022-08-08T10:14:28.124Z,75.60
2022-08-08T10:17:57.115Z,75.70
2022-08-08T10:20:01.820Z,75.30
2022-08-08T10:22:33.784Z,76.50
2022-08-08T10:25:05.900Z,76.10
2022-08-08T10:27:42.637Z,76.30
2022-08-08T10:30:16.811Z,75.10
2022-08-08T10:33:00.830Z,74.90
2022-08-08T10:36:08.998Z,74.60
2022-08-08T10:38:20.074Z,74.40
2022-08-08T10:40:53.136Z,73.70
2022-08-08T10:43:23.179Z,75.60
2022-08-08T10:45:56.523Z,76.00
2022-08-08T10:48:38.864Z,76.10
2022-08-08T10:51:24.219Z,76.00
2022-08-08T10:53:56.802Z,75.70
2022-08-08T10:56:34.905Z,75.40
2022-08-08T10:59:07.392Z,74.20
2022-08-08T11:59:05.038Z,72.60
2022-08-08T12:01:32.784Z,72.00
2022-08-08T12:04:04.918Z,71.60
2022-08-08T12:06:32.290Z,70.30
2022-08-08T12:09:17.232Z,72.20
2022-08-08T12:11:49.482Z,72.50
2022-08-08T12:14:29.058Z,71.80
2022-08-08T12:16:57.034Z,71.60
2022-08-08T12:19:31.478Z,73.00
2022-08-08T12:22:21.107Z,72.10
2022-08-08T12:24:53.805Z,72.20
2022-08-08T12:27:26.687Z,71.30
2022-08-08T12:29:56.271Z,71.50
2022-08-08T12:32:23.698Z,71.90
2022-08-08T12:35:04.972Z,72.10
2022-08-08T12:38:01.363Z,72.50
2022-08-08T12:40:54.688Z,72.00
2022-08-08T12:43:32.951Z,72.00
2022-08-08T12:46:19.226Z,72.10
2022-08-08T12:51:50.160Z,70.40
2022-08-08T12:54:33.273Z,70.30
2022-08-08T12:57:17.772Z,70.10
2022-08-08T13:00:04.749Z,70.60
2022-08-08T13:02:42.324Z,70.10
2022-08-08T13:05:26.734Z,70.40
2022-08-08T13:08:19.558Z,69.30
2022-08-08T13:10:56.218Z,68.90
2022-08-08T13:13:34.666Z,69.10
2022-08-08T13:16:25.866Z,69.30
2022-08-08T13:19:05.564Z,69.40
2022-08-08T13:21:55.421Z,72.50
2022-08-08T13:24:42.326Z,68.60
2022-08-08T13:27:18.156Z,69.40
2022-08-08T13:29:54.086Z,68.20
2022-08-08T13:32:28.509Z,68.40
2022-08-08T13:34:58.010Z,67.10
2022-08-08T13:38:03.198Z,67.60
2022-08-08T13:40:18.017Z,68.40
2022-08-08T13:42:56.204Z,68.20
2022-08-08T13:45:25.106Z,68.90
2022-08-08T13:48:01.154Z,68.70
2022-08-08T13:50:32.446Z,69.40
2022-08-08T13:53:24.790Z,68.20
2022-08-08T13:56:00.745Z,68.30
2022-08-08T13:58:29.571Z,68.10
2022-08-08T14:00:57.531Z,67.80
2022-08-08T14:03:47.167Z,67.50
2022-08-08T14:06:33.679Z,68.40
2022-08-08T14:09:24.863Z,68.90
2022-08-08T14:11:49.379Z,69.00
2022-08-08T14:14:20.962Z,67.60
2022-08-08T14:16:53.567Z,67.30
2022-08-08T14:19:57.676Z,67.60
2022-08-08T14:22:28.366Z,67.90
2022-08-08T14:25:01.759Z,67.70
2022-08-08T14:27:40.340Z,67.60
2022-08-08T14:30:18.064Z,67.00
2022-08-08T14:32:53.488Z,65.60
2022-08-08T14:35:36.060Z,65.70
2022-08-08T14:38:34.076Z,64.60
2022-08-08T14:40:59.068Z,65.60
2022-08-08T14:44:02.049Z,65.00
2022-08-08T14:46:16.218Z,65.30
2022-08-08T14:48:56.948Z,66.40
2022-08-08T14:51:47.015Z,66.00
2022-08-08T14:54:21.719Z,66.80
2022-08-08T14:56:58.136Z,65.30
2022-08-08T14:59:44.750Z,66.60
2022-08-08T15:02:15.499Z,65.50
2022-08-08T15:04:43.466Z,64.70
2022-08-08T15:07:22.770Z,64.40
2022-08-08T15:09:51.858Z,65.60
2022-08-08T15:12:27.377Z,64.80
2022-08-08T15:15:06.814Z,65.60
2022-08-08T15:17:44.096Z,65.60
2022-08-08T15:20:14.134Z,65.20
2022-08-08T15:22:44.706Z,65.30
2022-08-08T15:25:17.900Z,65.00
2022-08-08T15:28:04.885Z,64.90
2022-08-08T15:30:45.823Z,65.30
2022-08-08T15:33:35.358Z,65.60
2022-08-08T15:36:03.724Z,66.80
2022-08-08T15:38:30.899Z,69.10
2022-08-08T15:40:59.307Z,67.60
2022-08-08T15:43:36.132Z,68.20
2022-08-08T15:46:04.221Z,68.30
2022-08-08T15:48:31.507Z,68.20
2022-08-08T15:50:59.601Z,69.00
2022-08-08T15:53:27.580Z,70.00
2022-08-08T15:56:00.486Z,69.70
2022-08-08T15:58:28.337Z,69.60
2022-08-08T16:00:59.349Z,69.80
2022-08-08T16:03:26.605Z,69.80
2022-08-08T16:06:01.845Z,70.20
2022-08-08T16:08:29.623Z,69.90
2022-08-08T16:13:14.406Z,70.00
2022-08-08T16:13:46.497Z,69.70
2022-08-08T16:16:18.165Z,69.70
2022-08-08T16:18:57.255Z,70.60
2022-08-08T16:21:30.851Z,71.80
2022-08-08T16:24:02.185Z,70.80
2022-08-08T16:26:34.745Z,71.80
2022-08-08T16:29:08.794Z,71.50
2022-08-08T16:31:39.150Z,71.10
2022-08-08T16:34:06.329Z,71.40
2022-08-08T16:36:37.370Z,71.70
2022-08-08T16:39:09.836Z,71.60
2022-08-08T16:41:50.999Z,71.70
2022-08-08T16:44:28.125Z,71.30
2022-08-08T16:47:39.825Z,71.10
2022-08-08T16:50:15.329Z,72.30
2022-08-08T16:55:02.814Z,72.10
2022-08-08T16:55:53.803Z,72.60
2022-08-08T16:58:20.394Z,71.60
2022-08-08T17:00:49.082Z,72.00
2022-08-08T17:03:24.411Z,73.50
2022-08-08T17:06:03.004Z,72.50
2022-08-08T17:08:30.615Z,72.60
2022-08-08T17:11:11.104Z,72.10
2022-08-08T17:13:41.248Z,72.30
2022-08-08T17:16:17.913Z,71.50
2022-08-08T17:18:49.558Z,71.00
2022-08-08T17:21:18.816Z,71.20
2022-08-08T17:24:01.983Z,71.20
2022-08-08T17:26:30.837Z,71.00
2022-08-08T17:29:04.007Z,71.10
2022-08-08T17:31:44.141Z,71.40
2022-08-08T17:34:36.608Z,71.30
2022-08-08T17:37:06.839Z,71.00
2022-08-08T17:40:03.953Z,70.80
2022-08-08T17:42:24.035Z,71.70
2022-08-08T17:44:51.252Z,71.00
2022-08-08T17:47:23.994Z,71.90
2022-08-08T17:50:01.095Z,71.70
2022-08-08T17:52:34.418Z,71.50
2022-08-08T17:55:05.418Z,71.60
2022-08-08T17:57:37.500Z,71.50
2022-08-08T18:00:13.411Z,73.00
2022-08-08T18:02:52.445Z,72.10
2022-08-08T18:05:47.983Z,72.00
2022-08-08T18:08:37.754Z,72.80
2022-08-08T18:11:15.475Z,72.10
2022-08-08T18:13:46.882Z,72.80
2022-08-08T18:16:16.968Z,72.70
2022-08-08T18:18:53.433Z,73.20
2022-08-08T18:21:35.355Z,73.90
2022-08-08T18:24:19.555Z,75.10
2022-08-08T18:26:54.772Z,75.40
2022-08-08T18:29:32.928Z,75.40
2022-08-08T18:32:04.358Z,75.70
2022-08-08T18:34:35.248Z,75.70
2022-08-08T18:37:04.831Z,76.10
2022-08-08T18:39:36.508Z,76.30
2022-08-08T18:42:16.137Z,76.60
2022-08-08T18:44:54.798Z,76.60
2022-08-08T18:47:27.167Z,77.00
2022-08-08T18:50:00.429Z,77.10
2022-08-08T18:52:30.884Z,77.50
2022-08-08T18:54:59.644Z,77.50
2022-08-08T18:57:41.265Z,77.90
2022-08-08T19:00:19.879Z,78.00
2022-08-08T19:02:57.381Z,78.30
2022-08-08T19:05:34.642Z,78.40
2022-08-08T19:08:25.113Z,78.60
2022-08-08T19:11:01.760Z,78.70
2022-08-08T19:13:38.399Z,80.10
2022-08-08T19:16:20.323Z,79.10
2022-08-08T19:19:00.007Z,79.20
2022-08-08T19:21:30.099Z,79.40
2022-08-08T19:24:00.657Z,79.30
2022-08-08T19:26:30.321Z,79.20
2022-08-08T19:29:02.617Z,79.80
2022-08-08T19:31:35.241Z,79.90
2022-08-08T19:34:35.575Z,79.80
2022-08-08T19:39:22.883Z,79.60
2022-08-08T19:41:50.573Z,80.50
2022-08-08T19:44:42.478Z,80.30
2022-08-08T19:47:06.810Z,80.30
2022-08-08T19:49:36.579Z,80.70
2022-08-08T19:52:07.023Z,80.70
2022-08-08T19:54:34.335Z,80.90
2022-08-08T19:57:07.429Z,81.10
2022-08-08T19:59:35.883Z,81.10
2022-08-08T20:02:05.257Z,81.20
2022-08-08T20:04:33.706Z,81.50
2022-08-08T20:08:29.150Z,81.30
2022-08-08T20:09:55.787Z,81.50
2022-08-08T20:12:32.934Z,81.60
2022-08-08T20:15:14.844Z,81.60
2022-08-08T20:17:46.455Z,81.60
2022-08-08T20:20:18.807Z,81.80
2022-08-08T20:22:48.808Z,82.00
2022-08-08T20:25:20.733Z,82.20
2022-08-08T20:27:49.423Z,82.50
2022-08-08T20:30:52.780Z,82.20
2022-08-08T20:33:19.711Z,82.30
2022-08-08T20:35:58.678Z,82.70
2022-08-08T20:38:32.053Z,83.30
2022-08-08T20:41:05.778Z,82.70
2022-08-08T20:43:49.771Z,82.90
2022-08-08T20:46:20.215Z,83.10
2022-08-08T20:48:49.467Z,83.00
2022-08-08T20:51:17.239Z,83.70
2022-08-08T20:53:59.064Z,83.50
2022-08-08T20:56:34.999Z,84.20
2022-08-08T20:59:09.202Z,84.20
2022-08-08T21:02:06.851Z,84.30
2022-08-08T21:04:27.595Z,84.50
2022-08-08T21:06:55.785Z,84.80
2022-08-08T21:22:15.369Z,86.00
2022-08-08T21:24:53.381Z,86.80
2022-08-08T22:58:34.180Z,91.20
2022-08-08T23:02:03.076Z,91.60
2022-08-08T23:03:54.474Z,91.70
2022-08-08T23:06:24.350Z,91.80
2022-08-08T23:08:55.988Z,91.90
2022-08-08T23:11:31.329Z,91.90
2022-08-08T23:14:20.974Z,92.00
2022-08-08T23:16:54.723Z,92.10
2022-08-08T23:19:30.907Z,92.10
2022-08-08T23:22:01.609Z,92.20
2022-08-08T23:24:36.686Z,92.30
2022-08-08T23:27:17.358Z,92.40
2022-08-08T23:30:05.399Z,92.40
2022-08-08T23:32:41.723Z,92.50
2022-08-08T23:35:12.629Z,92.50
2022-08-08T23:38:02.331Z,92.60
2022-08-08T23:40:31.415Z,92.70
2022-08-08T23:43:02.744Z,92.70
2022-08-08T23:49:01.448Z,92.80
2022-08-08T23:49:06.766Z,92.80
2022-08-08T23:51:12.757Z,92.90
2022-08-08T23:54:05.730Z,92.90
2022-08-08T23:56:41.778Z,92.90
2022-08-08T23:59:17.224Z,93.00
